Airfield :
LOGIN :

Register | Disclaimer

   EN    FR    IT 

 










Legend :    VFR   Marginal VFR   IFR   Intensive IFR   Very Intensive IFR
Visi :
Ceiling :
>= 8 km
>= 3000ft
5 to 8 km
1000 to 3000 ft
1500m to 5 km
500 to 1000 ft
800 to 1500m
200 to 500 ft
< 800m
< 200 ft
Symbols :   Thunderstorms  Fog  Heavy snow  Heavy precipitations  Wind > 20 kt
SIGMETs :     Misc.  Thunderstorms  Icing  Turbulence  Mountain Waves  Volcanic Ashes







- Airport Elevation : 2697 ft
- IATA code : BLJ


DABT - Batna

CURRENT METAR :
  • 270000Z 29003KT 8000 FEW010 BKN023 06/05 Q1019

EXPIRED METARs :
  • 262300Z 05010KT 8000 FEW010 BKN023 07/05 Q1019
  • 262200Z 34004KT 8000 FEW010 BKN023 07/05 Q1019

TAF TAF DABT
Valid from the 27 at 00:00 until the 28 at 00:00 UTC


262300Z 2700/2724 04012KT 8000 FEW010 BKN030
PROB30
TEMPO 2700/2710 2000 -RA BR FEW010TCU
No reported NOTAMs for that airfield.
1 SIGMET reported for the Alger FIR (DAAA) :
 
Embedded thunderstorms
DAAA SIGMET 3 VALID 262200/270200 DAMM
DAAA ALGER FIR EMBD TS OBS WI N3430 E00635 - N3050 E00719 - N2809 E004561- N2616 W00006 - N2613 W00251 - N3000 E00002 - N3347 E00222 - N3430 E00635 TOP FL340 MOV NE NC=



MET'MAP, your aeronautical weather chart ! - Copyright ORBIFLY December 2007 - Disclaimer

ORBIFLY MET'MAP TEAM :

Programming & Development : Alexandra Zaïnal
Concept & Development : Baudouin d'Aumeries
Co-Development & Prog : Marc-Olivier Méhu
Technical & hardware support : Manuel Goepfert

Contact : metmap@orbifly.com




SOURCES & CREDITS :

   NOAA